Time;durP1;ratioP1;P1;durP2;ratioP2;P2;SDS_P1;SDS_P2;PMS_P1;PMS_P2;Temp;Humidity;BMP_temperature;BMP_pressure;BME280_temperature;BME280_humidity;BME280_pressure;Samples;Min_cycle;Max_cycle;Signal;HPM_P1;HPM_P2
2021/12/15 00:00:16;;;;;;;16.17;6.30;;;;;;;;;;4997164;28;20057;-76
2021/12/15 00:02:44;;;;;;;32.03;12.23;;;;;;;;;;4998303;28;20038;-76
2021/12/15 00:05:11;;;;;;;16.08;6.40;;;;;;;;;;4989675;28;20045;-76
2021/12/15 00:07:37;;;;;;;19.15;7.18;;;;;;;;;;4993429;28;20057;-76
2021/12/15 00:10:04;;;;;;;19.40;6.47;;;;;;;;;;4996561;28;20034;-76
2021/12/15 00:12:31;;;;;;;20.15;8.30;;;;;;;;;;4992422;28;20030;-76
2021/12/15 00:14:57;;;;;;;10.50;5.30;;;;;;;;;;5004395;28;20171;-77
2021/12/15 00:17:24;;;;;;;11.40;5.70;;;;;;;;;;5002378;28;20410;-77
2021/12/15 00:19:51;;;;;;;17.42;8.38;;;9.60;99.90;;;;;;4997955;28;20410;-76
2021/12/15 00:22:17;;;;;;;24.80;9.05;;;;;;;;;;4982831;28;20209;-76
2021/12/15 00:24:44;;;;;;;17.05;5.95;;;;;;;;;;5012758;28;20037;-77
2021/12/15 00:27:10;;;;;;;20.42;8.02;;;;;;;;;;4995153;28;20081;-77
2021/12/15 00:29:36;;;;;;;14.38;6.32;;;;;;;;;;5001152;28;20026;-77
2021/12/15 00:32:04;;;;;;;9.57;5.43;;;9.60;99.90;;;;;;4991700;28;20027;-76
2021/12/15 00:34:37;;;;;;;18.15;7.25;;;;;;;;;;4995533;28;20034;-76
2021/12/15 00:37:04;;;;;;;16.60;6.13;;;;;;;;;;4988709;28;20097;-76
2021/12/15 00:39:31;;;;;;;10.70;5.03;;;;;;;;;;5000335;28;20022;-76
2021/12/15 00:41:57;;;;;;;16.77;7.20;;;;;;;;;;5002367;28;20458;-76
2021/12/15 00:44:24;;;;;;;20.17;7.57;;;;;;;;;;4995389;28;20054;-76
2021/12/15 00:46:52;;;;;;;13.45;4.40;;;;;;;;;;4991950;28;20101;-76
2021/12/15 00:49:18;;;;;;;13.13;5.50;;;;;;;;;;4997583;28;20085;-76
2021/12/15 00:51:44;;;;;;;15.10;6.45;;;;;;;;;;4989959;28;20065;-76
2021/12/15 00:54:11;;;;;;;12.35;6.32;;;9.70;99.90;;;;;;4994281;28;20076;-76
2021/12/15 00:56:37;;;;;;;13.32;6.43;;;;;;;;;;4976421;28;20156;-76
2021/12/15 00:59:04;;;;;;;9.68;5.35;;;;;;;;;;4984784;28;20262;-76
2021/12/15 01:01:31;;;;;;;19.75;6.88;;;;;;;;;;4995233;28;20196;-76
2021/12/15 01:03:57;;;;;;;16.98;6.38;;;;;;;;;;4995208;28;20031;-76
2021/12/15 01:06:23;;;;;;;27.70;9.35;;;;;;;;;;4994984;28;20048;-76
2021/12/15 01:08:55;;;;;;;22.52;8.50;;;;;;;;;;4998605;28;20038;-76
2021/12/15 01:11:32;;;;;;;23.38;8.32;;;;;;;;;;4999444;28;20284;-76
2021/12/15 01:19:48;;;;;;;11.13;4.35;;;;;;;;;;4995865;28;20041;-76
2021/12/15 01:22:16;;;;;;;26.85;12.10;;;9.70;99.90;;;;;;5010525;28;20117;-76
2021/12/15 01:24:43;;;;;;;14.30;6.40;;;;;;;;;;4990702;28;20038;-76
2021/12/15 01:27:09;;;;;;;10.30;4.85;;;;;;;;;;4997285;28;20054;-76
2021/12/15 01:29:35;;;;;;;17.88;7.18;;;;;;;;;;4991807;28;20129;-77
2021/12/15 01:32:02;;;;;;;13.90;5.93;;;;;;;;;;4980455;28;20050;-76
2021/12/15 01:34:28;;;;;;;7.20;4.07;;;;;;;;;;5012239;28;20118;-76
2021/12/15 01:36:54;;;;;;;15.00;6.18;;;;;;;;;;4999191;28;20045;-76
2021/12/15 01:39:20;;;;;;;14.77;6.35;;;;;;;;;;4997050;28;20093;-77
2021/12/15 01:41:47;;;;;;;17.25;7.50;;;;;;;;;;4993936;28;20256;-77
2021/12/15 01:46:56;;;;;;;15.68;6.65;;;9.70;99.90;;;;;;4989853;28;20030;-77
2021/12/15 01:49:28;;;;;;;17.13;6.07;;;;;;;;;;4994610;28;20195;-77
2021/12/15 01:51:56;;;;;;;14.13;6.97;;;;;;;;;;4998559;28;20081;-77
2021/12/15 01:54:24;;;;;;;9.63;5.70;;;9.70;99.90;;;;;;4976071;28;20050;-77
2021/12/15 01:56:50;;;;;;;11.13;5.57;;;;;;;;;;4992886;28;20245;-77
2021/12/15 01:59:18;;;;;;;24.13;8.50;;;;;;;;;;4999889;28;20046;-77
2021/12/15 02:01:45;;;;;;;15.52;7.97;;;;;;;;;;4994917;28;20031;-77
2021/12/15 02:04:11;;;;;;;24.40;8.70;;;;;;;;;;4995946;28;20050;-77
2021/12/15 02:06:41;;;;;;;17.15;7.03;;;;;;;;;;4998385;28;20041;-77
2021/12/15 02:09:07;;;;;;;15.52;7.30;;;;;;;;;;5002333;28;20340;-77
2021/12/15 02:11:33;;;;;;;24.80;9.23;;;;;;;;;;5000660;28;20054;-77
2021/12/15 02:14:00;;;;;;;20.60;9.75;;;;;;;;;;4986811;28;20034;-76
2021/12/15 02:16:28;;;;;;;17.77;8.55;;;;;;;;;;4996834;28;20057;-77
2021/12/15 02:18:55;;;;;;;22.17;8.88;;;;;;;;;;4997557;28;20062;-77
2021/12/15 02:21:23;;;;;;;19.20;8.50;;;;;;;;;;5001629;28;20057;-77
2021/12/15 02:23:53;;;;;;;20.35;7.82;;;;;;;;;;4981076;28;20136;-77
2021/12/15 02:26:22;;;;;;;18.50;7.65;;;;;;;;;;4983393;28;20247;-77
2021/12/15 02:28:54;;;;;;;20.08;7.35;;;;;;;;;;4968856;28;20032;-77
2021/12/15 02:31:37;;;;;;;24.92;9.88;;;;;;;;;;4992970;28;20098;-77
2021/12/15 02:39:22;;;;;;;24.27;10.13;;;;;;;;;;5009203;28;20042;-77
2021/12/15 02:41:48;;;;;;;27.33;10.73;;;;;;;;;;4998835;28;20033;-77
2021/12/15 02:44:16;;;;;;;16.65;8.82;;;;;;;;;;4996720;28;20041;-77
2021/12/15 02:46:45;;;;;;;26.45;10.38;;;;;;;;;;4994864;28;20038;-77
2021/12/15 02:49:13;;;;;;;22.25;10.07;;;;;;;;;;4994951;28;20042;-77
2021/12/15 02:51:40;;;;;;;20.75;8.50;;;;;;;;;;4999178;28;20321;-76
2021/12/15 02:54:08;;;;;;;20.20;9.50;;;9.70;99.90;;;;;;5000527;28;20054;-76
2021/12/15 02:56:35;;;;;;;15.70;8.05;;;;;;;;;;5000487;28;20022;-77
2021/12/15 02:59:04;;;;;;;17.50;8.70;;;9.60;99.90;;;;;;4996887;28;20034;-77
2021/12/15 03:01:39;;;;;;;17.30;7.28;;;;;;;;;;4997462;28;20110;-76
2021/12/15 03:06:45;;;;;;;23.58;8.30;;;;;;;;;;4994352;28;20252;-77
2021/12/15 03:15:20;;;;;;;14.30;7.57;;;;;;;;;;4995996;28;20038;-77
2021/12/15 03:17:17;;;;;;;18.92;8.20;;;;;;;;;;4988519;28;20404;-76
2021/12/15 03:19:43;;;;;;;21.83;9.88;;;;;;;;;;4996667;28;20050;-76
2021/12/15 03:22:09;;;;;;;21.65;8.65;;;;;;;;;;4981693;28;20049;-76
2021/12/15 03:24:36;;;;;;;21.73;10.70;;;;;;;;;;5005823;28;20037;-76
2021/12/15 03:27:12;;;;;;;18.20;8.65;;;;;;;;;;4988726;28;20030;-77
2021/12/15 03:37:43;;;;;;;23.02;9.75;;;9.50;99.90;;;;;;4992169;28;20070;-77
2021/12/15 03:40:12;;;;;;;17.73;7.70;;;;;;;;;;4989121;28;20099;-77
2021/12/15 03:42:42;;;;;;;22.48;9.43;;;;;;;;;;4996299;28;20034;-76
2021/12/15 03:45:10;;;;;;;23.02;9.98;;;;;;;;;;4996073;28;20110;-77
2021/12/15 03:47:39;;;;;;;25.15;9.35;;;;;;;;;;5000037;28;20057;-77
2021/12/15 03:50:08;;;;;;;29.83;12.30;;;9.50;99.90;;;;;;4991805;28;20097;-76
2021/12/15 03:52:35;;;;;;;22.23;9.95;;;;;;;;;;4995116;28;20022;-78
2021/12/15 03:55:01;;;;;;;27.95;12.77;;;;;;;;;;4971694;28;20064;-77
2021/12/15 03:57:28;;;;;;;26.23;10.10;;;9.80;99.90;;;;;;4991817;28;20038;-77
2021/12/15 03:59:56;;;;;;;17.95;7.82;;;;;;;;;;4994731;28;20294;-76
2021/12/15 04:02:23;;;;;;;22.25;9.45;;;;;;;;;;4985129;28;20313;-77
2021/12/15 04:04:49;;;;;;;18.38;9.65;;;;;;;;;;5000802;28;20054;-77
2021/12/15 04:07:17;;;;;;;14.88;7.05;;;;;;;;;;4997337;28;20038;-77
2021/12/15 04:09:43;;;;;;;19.90;10.32;;;;;;;;;;4979510;28;20039;-77
2021/12/15 04:12:09;;;;;;;14.57;7.82;;;9.50;99.90;;;;;;4994004;28;20110;-77
2021/12/15 04:14:44;;;;;;;26.17;9.23;;;;;;;;;;4996548;28;20058;-77
2021/12/15 04:17:26;;;;;;;21.77;8.20;;;9.40;99.90;;;;;;4975847;28;20026;-77
2021/12/15 04:19:54;;;;;;;16.20;8.57;;;;;;;;;;5000936;28;20080;-77
2021/12/15 04:22:20;;;;;;;19.20;9.13;;;;;;;;;;4989916;28;20057;-77
2021/12/15 04:24:46;;;;;;;23.15;9.88;;;;;;;;;;4981036;28;20162;-77
2021/12/15 04:27:13;;;;;;;37.30;15.52;;;;;;;;;;4995776;28;20263;-77
2021/12/15 04:29:40;;;;;;;17.05;8.10;;;;;;;;;;4981605;28;20030;-77
2021/12/15 04:32:09;;;;;;;22.13;10.73;;;;;;;;;;4994618;28;20034;-77
2021/12/15 04:34:35;;;;;;;18.17;9.27;;;;;;;;;;4975439;28;20288;-77
2021/12/15 04:37:02;;;;;;;18.42;7.55;;;;;;;;;;4996152;28;20047;-77
2021/12/15 04:39:28;;;;;;;46.80;15.15;;;;;;;;;;4998362;28;20240;-77
2021/12/15 04:41:56;;;;;;;11.57;6.57;;;;;;;;;;4990607;28;20027;-77
2021/12/15 04:44:25;;;;;;;13.88;7.63;;;;;;;;;;4993780;28;20646;-77
2021/12/15 04:46:59;;;;;;;34.25;14.07;;;;;;;;;;4991996;28;20054;-77
2021/12/15 04:49:26;;;;;;;26.17;11.33;;;;;;;;;;4991393;28;20177;-77
2021/12/15 04:51:52;;;;;;;17.13;7.75;;;;;;;;;;4981665;28;20080;-76
2021/12/15 04:54:19;;;;;;;18.05;8.38;;;;;;;;;;4981431;28;20022;-77
2021/12/15 04:56:45;;;;;;;28.58;9.95;;;;;;;;;;4992647;28;20085;-75
2021/12/15 04:59:11;;;;;;;14.73;7.63;;;;;;;;;;4983151;28;20050;-76
2021/12/15 05:01:37;;;;;;;21.25;10.32;;;;;;;;;;4995060;28;20064;-76
2021/12/15 05:04:04;;;;;;;27.13;10.48;;;;;;;;;;4981537;28;20042;-77
2021/12/15 05:06:30;;;;;;;23.95;9.93;;;9.20;99.90;;;;;;4992071;28;20452;-76
2021/12/15 05:08:57;;;;;;;20.50;9.32;;;;;;;;;;4986118;28;20188;-76
2021/12/15 05:11:23;;;;;;;19.77;8.68;;;;;;;;;;4982683;28;20022;-76
2021/12/15 05:13:49;;;;;;;15.40;7.97;;;;;;;;;;4994050;28;20097;-76
2021/12/15 05:16:16;;;;;;;20.95;7.68;;;;;;;;;;5004482;28;20033;-76
2021/12/15 05:18:43;;;;;;;15.23;7.95;;;;;;;;;;4993338;28;20050;-76
2021/12/15 05:21:10;;;;;;;17.98;7.88;;;;;;;;;;4991552;28;20284;-77
2021/12/15 05:23:37;;;;;;;19.90;8.75;;;;;;;;;;4994778;28;20072;-77
2021/12/15 05:26:03;;;;;;;16.17;8.10;;;;;;;;;;4999025;28;20033;-77
2021/12/15 05:28:30;;;;;;;17.88;7.70;;;;;;;;;;4998156;28;20093;-77
2021/12/15 05:30:57;;;;;;;17.67;8.38;;;;;;;;;;4990952;28;20083;-77
2021/12/15 05:33:24;;;;;;;14.20;7.82;;;;;;;;;;4976276;28;20030;-77
2021/12/15 05:35:50;;;;;;;20.33;7.85;;;;;;;;;;4995266;28;20132;-77
2021/12/15 05:38:17;;;;;;;13.95;6.68;;;;;;;;;;4998815;28;20311;-77
2021/12/15 05:40:44;;;;;;;17.85;7.70;;;;;;;;;;4980613;28;20246;-77
2021/12/15 05:43:10;;;;;;;22.05;9.27;;;;;;;;;;5015175;28;20038;-78
2021/12/15 05:45:38;;;;;;;20.88;8.73;;;;;;;;;;4998053;28;20055;-77
2021/12/15 05:48:05;;;;;;;14.88;5.40;;;;;;;;;;4997607;28;20141;-77
2021/12/15 05:50:32;;;;;;;21.77;7.82;;;9.30;99.90;;;;;;4994963;28;20303;-77
2021/12/15 05:53:00;;;;;;;12.77;5.60;;;;;;;;;;4979280;28;20030;-77
2021/12/15 05:55:26;;;;;;;17.98;7.30;;;9.30;99.90;;;;;;4998050;28;20101;-77
2021/12/15 05:57:53;;;;;;;15.65;7.47;;;;;;;;;;4995666;28;20133;-77
2021/12/15 06:00:20;;;;;;;10.82;5.57;;;;;;;;;;5006340;28;20219;-77
2021/12/15 06:02:47;;;;;;;14.73;6.13;;;;;;;;;;4988143;28;20164;-77
2021/12/15 06:05:14;;;;;;;23.05;8.38;;;;;;;;;;5004899;28;20034;-77
2021/12/15 06:07:40;;;;;;;15.57;7.28;;;;;;;;;;4992512;28;20230;-77
2021/12/15 06:10:08;;;;;;;15.30;6.90;;;;;;;;;;4982332;28;20156;-77
2021/12/15 06:12:34;;;;;;;20.75;7.10;;;;;;;;;;4996619;28;20037;-77
2021/12/15 06:15:00;;;;;;;9.98;5.70;;;;;;;;;;4996974;28;20057;-77
2021/12/15 06:17:26;;;;;;;21.25;6.72;;;;;;;;;;5001638;28;20034;-77
2021/12/15 06:19:56;;;;;;;18.75;7.25;;;;;;;;;;4981255;28;20077;-77
2021/12/15 06:22:26;;;;;;;18.08;8.02;;;;;;;;;;4994909;28;20023;-78
2021/12/15 06:24:53;;;;;;;17.92;6.35;;;9.50;99.90;;;;;;4993091;28;20034;-77
2021/12/15 06:27:20;;;;;;;18.88;6.50;;;;;;;;;;4997558;28;20058;-77
2021/12/15 06:29:51;;;;;;;22.10;8.10;;;;;;;;;;5001517;28;21230;-77
2021/12/15 06:32:18;;;;;;;16.90;6.70;;;9.60;99.90;;;;;;4996005;28;20105;-77
2021/12/15 06:34:44;;;;;;;11.80;4.63;;;;;;;;;;4997821;28;20094;-77
2021/12/15 06:37:11;;;;;;;6.13;3.55;;;;;;;;;;4997487;28;20096;-77
2021/12/15 06:39:37;;;;;;;14.00;5.20;;;;;;;;;;4988027;28;20238;-78
2021/12/15 06:42:04;;;;;;;20.45;8.45;;;;;;;;;;4996436;28;20119;-77
2021/12/15 06:44:30;;;;;;;14.38;6.30;;;;;;;;;;4957516;28;20045;-77
2021/12/15 07:00:31;;;;;;;14.23;6.25;;;9.80;99.90;;;;;;4996201;28;20034;-77
2021/12/15 07:02:59;;;;;;;13.30;6.75;;;;;;;;;;4995191;28;20054;-77
2021/12/15 07:05:26;;;;;;;15.40;5.78;;;;;;;;;;4999326;28;20097;-77
2021/12/15 07:07:53;;;;;;;13.68;5.85;;;;;;;;;;4983735;28;20134;-77
2021/12/15 07:10:25;;;;;;;17.58;6.45;;;;;;;;;;4967913;28;20047;-77
2021/12/15 07:12:52;;;;;;;19.92;8.15;;;;;;;;;;5009328;28;20275;-77
2021/12/15 07:15:18;;;;;;;24.98;9.57;;;;;;;;;;4994305;28;20053;-77
2021/12/15 07:17:48;;;;;;;20.65;7.28;;;;;;;;;;5002454;28;20355;-77
2021/12/15 07:21:07;;;;;;;17.92;6.68;;;;;;;;;;4991702;28;20144;-77
2021/12/15 07:23:10;;;;;;;16.27;7.22;;;9.70;99.90;;;;;;4988063;28;20038;-77
2021/12/15 07:25:38;;;;;;;16.05;6.95;;;;;;;;;;4976795;28;20150;-77
2021/12/15 07:28:04;;;;;;;11.13;5.70;;;;;;;;;;4996452;28;20147;-77
2021/12/15 07:30:31;;;;;;;14.07;5.88;;;;;;;;;;4996045;28;20215;-77
2021/12/15 07:32:58;;;;;;;16.20;5.43;;;;;;;;;;4980122;28;20076;-76
2021/12/15 07:35:24;;;;;;;15.52;5.60;;;;;;;;;;4976109;28;20037;-77
2021/12/15 07:37:51;;;;;;;16.75;5.85;;;;;;;;;;4983092;28;20176;-77
2021/12/15 07:40:21;;;;;;;7.82;2.88;;;;;;;;;;4985662;28;20065;-77
2021/12/15 07:45:24;;;;;;;25.35;7.70;;;;;;;;;;4998706;28;20066;-77
2021/12/15 07:47:52;;;;;;;12.93;5.57;;;;;;;;;;4979709;28;20247;-77
2021/12/15 07:50:19;;;;;;;7.45;3.58;;;;;;;;;;4999547;28;20437;-77
2021/12/15 07:52:46;;;;;;;13.35;4.50;;;;;;;;;;4996182;28;20038;-78
2021/12/15 07:55:13;;;;;;;10.85;3.47;;;;;;;;;;4996689;28;20168;-77
2021/12/15 07:57:39;;;;;;;17.40;5.30;;;;;;;;;;4980094;28;20232;-78
2021/12/15 08:00:07;;;;;;;20.50;7.10;;;;;;;;;;5011476;28;20026;-78
2021/12/15 08:02:33;;;;;;;13.93;5.15;;;;;;;;;;4988190;28;20042;-78
2021/12/15 08:04:59;;;;;;;8.95;3.17;;;;;;;;;;4977210;28;20030;-78
2021/12/15 08:07:25;;;;;;;9.35;4.03;;;;;;;;;;5000644;28;20244;-78
2021/12/15 08:09:51;;;;;;;22.42;5.53;;;;;;;;;;4991347;28;20300;-77
2021/12/15 08:12:17;;;;;;;15.80;3.97;;;;;;;;;;4997315;28;20076;-77
2021/12/15 08:14:43;;;;;;;16.25;6.68;;;;;;;;;;4990992;28;20213;-77
2021/12/15 08:17:09;;;;;;;14.05;5.93;;;;;;;;;;4990668;28;20027;-77
2021/12/15 08:19:36;;;;;;;12.43;5.00;;;;;;;;;;4983822;28;21410;-77
2021/12/15 08:22:02;;;;;;;15.52;5.38;;;;;;;;;;4993542;28;20026;-77
2021/12/15 08:24:28;;;;;;;14.48;6.13;;;;;;;;;;4993619;28;20215;-77
2021/12/15 08:26:54;;;;;;;7.20;3.20;;;;;;;;;;4995389;28;20050;-77
2021/12/15 08:29:21;;;;;;;14.38;4.43;;;;;;;;;;4991014;28;20236;-77
2021/12/15 08:31:47;;;;;;;11.90;5.43;;;;;;;;;;4976506;28;20150;-77
2021/12/15 08:34:13;;;;;;;11.38;4.45;;;;;;;;;;4998331;28;20027;-77
2021/12/15 08:36:40;;;;;;;7.10;2.65;;;;;;;;;;4997239;28;20251;-77
2021/12/15 08:39:07;;;;;;;9.25;3.65;;;;;;;;;;5003030;28;20106;-78
2021/12/15 08:41:34;;;;;;;7.97;3.45;;;;;;;;;;4996282;28;20101;-77
2021/12/15 08:44:00;;;;;;;10.82;3.25;;;;;;;;;;4998726;28;20245;-76
2021/12/15 08:46:38;;;;;;;6.20;2.83;;;;;;;;;;4994077;28;20101;-76
2021/12/15 08:49:05;;;;;;;14.63;5.05;;;;;;;;;;4979535;28;20175;-76
2021/12/15 08:51:31;;;;;;;9.43;3.13;;;;;;;;;;5000514;28;20092;-76
2021/12/15 08:54:00;;;;;;;13.85;5.38;;;;;;;;;;4998305;28;20026;-76
2021/12/15 08:56:26;;;;;;;8.90;3.92;;;9.20;99.90;;;;;;4999699;28;20069;-76
2021/12/15 08:58:53;;;;;;;6.22;2.42;;;;;;;;;;4972930;28;20030;-76
2021/12/15 09:01:19;;;;;;;12.80;3.88;;;;;;;;;;4980009;28;20042;-76
2021/12/15 09:03:45;;;;;;;12.82;4.47;;;;;;;;;;5000855;28;20061;-76
2021/12/15 09:06:12;;;;;;;14.35;4.13;;;;;;;;;;4978397;28;20450;-77
2021/12/15 09:08:39;;;;;;;14.45;3.78;;;;;;;;;;4997794;28;20163;-76
2021/12/15 09:11:07;;;;;;;10.27;3.08;;;;;;;;;;4998025;28;20039;-76
2021/12/15 09:13:33;;;;;;;17.75;5.13;;;;;;;;;;4995493;28;20034;-76
2021/12/15 09:16:02;;;;;;;11.30;4.68;;;;;;;;;;4970937;28;20053;-77
2021/12/15 09:18:28;;;;;;;21.50;4.47;;;;;;;;;;4981009;28;20042;-78
2021/12/15 09:20:54;;;;;;;5.28;2.38;;;;;;;;;;4983063;28;20030;-77
2021/12/15 09:23:21;;;;;;;6.72;2.83;;;;;;;;;;4982169;28;20147;-78
2021/12/15 09:25:48;;;;;;;5.78;2.17;;;;;;;;;;4982131;28;20058;-78
2021/12/15 09:28:15;;;;;;;8.25;2.00;;;;;;;;;;4998577;28;20030;-77
2021/12/15 09:30:46;;;;;;;6.57;2.33;;;;;;;;;;4996183;28;20308;-77
2021/12/15 09:33:18;;;;;;;5.82;2.20;;;;;;;;;;4997111;28;20045;-77
2021/12/15 09:35:44;;;;;;;9.15;3.25;;;;;;;;;;4998786;28;20237;-77
2021/12/15 09:38:10;;;;;;;11.45;3.60;;;;;;;;;;4998492;28;20062;-78
2021/12/15 09:40:37;;;;;;;7.30;2.47;;;;;;;;;;4995011;28;20160;-77
2021/12/15 09:43:04;;;;;;;6.63;2.88;;;;;;;;;;4997574;28;20077;-77
2021/12/15 09:45:49;;;;;;;8.02;1.90;;;;;;;;;;4994692;28;20316;-77
2021/12/15 09:56:50;;;;;;;9.23;3.30;;;;;;;;;;4992930;28;20101;-76
2021/12/15 10:04:48;;;;;;;8.27;2.55;;;;;;;;;;4996646;28;20054;-83
2021/12/15 10:17:25;;;;;;;7.65;2.28;;;;;;;;;;4999239;28;20030;-82
2021/12/15 10:18:19;;;;;;;7.63;2.20;;;;;;;;;;4991320;28;20107;-82
2021/12/15 10:20:45;;;;;;;9.85;3.33;;;;;;;;;;4996441;28;20026;-83
2021/12/15 10:23:15;;;;;;;8.63;2.17;;;;;;;;;;4983002;28;20050;-84
2021/12/15 10:25:45;;;;;;;4.03;1.08;;;;;;;;;;4985108;28;20106;-84
2021/12/15 10:28:18;;;;;;;5.70;1.55;;;;;;;;;;4989360;28;20057;-84
2021/12/15 10:30:47;;;;;;;9.68;2.08;;;;;;;;;;4994211;28;20042;-82
2021/12/15 10:33:15;;;;;;;5.00;1.42;;;;;;;;;;4997556;28;20041;-84
2021/12/15 10:35:48;;;;;;;7.20;1.67;;;10.20;99.90;;;;;;4997682;28;20046;-79
2021/12/15 10:38:18;;;;;;;5.53;1.48;;;;;;;;;;4996283;28;20050;-83
2021/12/15 10:41:07;;;;;;;9.85;2.00;;;10.40;99.90;;;;;;4974377;28;20062;-83
2021/12/15 10:43:34;;;;;;;12.00;2.55;;;;;;;;;;4993622;28;20031;-84
2021/12/15 10:46:01;;;;;;;6.05;1.95;;;;;;;;;;5005840;28;20072;-83
2021/12/15 10:48:36;;;;;;;5.72;1.70;;;;;;;;;;4994628;28;20045;-83
2021/12/15 10:51:23;;;;;;;9.20;2.10;;;;;;;;;;4994816;28;20048;-83
2021/12/15 10:53:50;;;;;;;9.70;1.80;;;;;;;;;;4989472;28;20026;-84
2021/12/15 10:56:18;;;;;;;9.73;2.75;;;;;;;;;;4979613;28;20034;-82
2021/12/15 10:58:47;;;;;;;9.10;2.10;;;;;;;;;;5012514;28;20050;-83
2021/12/15 11:01:31;;;;;;;7.32;2.10;;;10.30;99.90;;;;;;4996256;28;20271;-83
2021/12/15 11:04:00;;;;;;;9.70;2.60;;;;;;;;;;4986648;28;20031;-83
2021/12/15 11:06:32;;;;;;;8.50;2.50;;;10.20;99.90;;;;;;4991279;28;20042;-83
2021/12/15 11:09:20;;;;;;;14.75;2.95;;;;;;;;;;4976011;28;20051;-82
2021/12/15 11:12:07;;;;;;;8.27;2.53;;;;;;;;;;4995680;28;20053;-82
2021/12/15 11:14:35;;;;;;;11.85;2.78;;;;;;;;;;4993357;28;20034;-84
2021/12/15 11:17:23;;;;;;;9.63;2.33;;;10.70;99.90;;;;;;4998765;28;20270;-79
2021/12/15 11:19:52;;;;;;;10.57;2.95;;;;;;;;;;5008899;28;20046;-82
2021/12/15 11:22:40;;;;;;;6.05;2.30;;;10.80;99.90;;;;;;4994893;28;20158;-83
2021/12/15 11:25:08;;;;;;;5.38;1.80;;;;;;;;;;4995488;28;20125;-81
2021/12/15 11:27:35;;;;;;;11.65;2.03;;;;;;;;;;4995931;28;20018;-83
2021/12/15 11:30:01;;;;;;;4.43;1.27;;;;;;;;;;4999954;28;20037;-80
2021/12/15 11:32:37;;;;;;;9.52;1.45;;;;;;;;;;4996170;28;20046;-82
2021/12/15 11:35:08;;;;;;;8.68;1.73;;;;;;;;;;5007302;28;20041;-83
2021/12/15 11:37:45;;;;;;;6.72;1.13;;;;;;;;;;4996409;28;20302;-83
2021/12/15 11:40:12;;;;;;;6.57;1.40;;;;;;;;;;4978708;28;20034;-83
2021/12/15 11:42:39;;;;;;;3.40;1.00;;;;;;;;;;4994378;28;20063;-82
2021/12/15 11:45:07;;;;;;;7.30;1.38;;;;;;;;;;4993411;28;20252;-82
2021/12/15 11:47:33;;;;;;;7.72;1.88;;;;;;;;;;4994226;28;20255;-82
2021/12/15 11:50:17;;;;;;;6.43;1.85;;;;;;;;;;4995370;28;20045;-83
2021/12/15 11:52:45;;;;;;;6.80;1.55;;;;;;;;;;4999322;28;20038;-81
2021/12/15 11:55:21;;;;;;;3.33;1.15;;;;;;;;;;4996101;28;20199;-82
2021/12/15 11:57:48;;;;;;;7.15;1.65;;;;;;;;;;4991707;28;20085;-82
2021/12/15 12:00:15;;;;;;;5.50;2.10;;;;;;;;;;4991845;28;20046;-82
2021/12/15 12:02:51;;;;;;;8.85;3.60;;;11.60;99.90;;;;;;4997016;28;20290;-81
2021/12/15 12:05:37;;;;;;;5.40;1.65;;;11.30;99.90;;;;;;4992803;28;20041;-82
2021/12/15 12:08:09;;;;;;;4.53;1.60;;;10.70;99.90;;;;;;4990993;28;20037;-81
2021/12/15 12:10:44;;;;;;;4.43;1.20;;;10.70;99.90;;;;;;4980455;28;20037;-81
2021/12/15 12:13:13;;;;;;;;;;;;;;;;;;4977856;28;20039;-82
2021/12/15 12:15:45;;;;;;;6.40;1.90;;;10.40;99.90;;;;;;4981883;28;19909;-82
2021/12/15 12:18:12;;;;;;;15.02;7.50;;;;;;;;;;4997274;28;20042;-83
2021/12/15 12:20:40;;;;;;;5.60;2.08;;;;;;;;;;4990656;28;20034;-81
2021/12/15 12:23:09;;;;;;;5.55;1.52;;;;;;;;;;4985533;28;20042;-81
2021/12/15 12:25:39;;;;;;;4.53;1.98;;;;;;;;;;4990089;28;20094;-82
2021/12/15 12:28:08;;;;;;;5.82;1.83;;;;;;;;;;4992002;28;20195;-82
2021/12/15 12:30:37;;;;;;;4.65;1.23;;;;;;;;;;4989888;28;20085;-82
2021/12/15 12:33:08;;;;;;;2.95;1.50;;;;;;;;;;4989297;28;20083;-81
2021/12/15 12:35:35;;;;;;;3.10;1.20;;;;;;;;;;4979581;28;20034;-81
2021/12/15 12:38:05;;;;;;;2.40;0.88;;;;;;;;;;4992581;28;20038;-82
2021/12/15 12:40:36;;;;;;;4.13;1.23;;;;;;;;;;4995436;28;20309;-82
2021/12/15 12:43:19;;;;;;;4.85;1.02;;;;;;;;;;4993434;28;20030;-82
2021/12/15 12:45:53;;;;;;;7.68;1.52;;;;;;;;;;4991357;28;20043;-82
2021/12/15 12:57:55;;;;;;;7.15;2.05;;;;;;;;;;4998165;28;20199;-82
2021/12/15 12:59:45;;;;;;;4.05;1.00;;;;;;;;;;4994783;28;20031;-81
2021/12/15 13:02:30;;;;;;;2.00;0.93;;;10.60;99.90;;;;;;4991415;28;20053;-81
2021/12/15 13:04:56;;;;;;;6.43;1.27;;;;;;;;;;4989030;28;20183;-81
2021/12/15 13:07:46;;;;;;;3.22;1.10;;;10.80;99.90;;;;;;4998563;28;20105;-81
2021/12/15 13:10:13;;;;;;;6.15;1.30;;;;;;;;;;4994367;28;20102;-81
2021/12/15 13:12:47;;;;;;;5.65;2.00;;;;;;;;;;4993060;28;20033;-81
2021/12/15 13:15:15;;;;;;;4.30;1.52;;;;;;;;;;4993885;28;20050;-80
2021/12/15 13:17:53;;;;;;;12.05;2.75;;;;;;;;;;4980347;28;20049;-81
2021/12/15 13:20:24;;;;;;;8.20;2.28;;;;;;;;;;4996687;28;20042;-81
2021/12/15 13:23:07;;;;;;;8.27;1.90;;;;;;;;;;4993189;28;20348;-81
2021/12/15 13:28:45;;;;;;;7.60;2.20;;;;;;;;;;4997930;28;20070;-82
2021/12/15 13:31:25;;;;;;;5.75;1.83;;;9.80;99.90;;;;;;4989206;28;20062;-82
2021/12/15 13:33:59;;;;;;;4.50;1.20;;;;;;;;;;4993274;28;20034;-81
2021/12/15 13:36:30;;;;;;;5.90;1.60;;;;;;;;;;5002038;28;20068;-80
2021/12/15 13:38:56;;;;;;;4.32;0.88;;;;;;;;;;4988543;28;20057;-81
2021/12/15 13:41:39;;;;;;;4.65;1.85;;;;;;;;;;4989386;28;20035;-82
2021/12/15 13:44:11;;;;;;;3.97;1.40;;;;;;;;;;4980057;28;20236;-82
2021/12/15 13:46:38;;;;;;;10.55;2.25;;;;;;;;;;4979467;28;20141;-82
2021/12/15 13:49:04;;;;;;;6.18;1.30;;;;;;;;;;4978684;28;20022;-82
2021/12/15 13:51:49;;;;;;;4.05;2.00;;;;;;;;;;4999907;28;20045;-82
2021/12/15 13:54:21;;;;;;;7.57;1.38;;;;;;;;;;4983835;28;20479;-82
2021/12/15 13:56:52;;;;;;;2.90;1.20;;;;;;;;;;4994154;28;20030;-82
2021/12/15 13:59:47;;;;;;;2.30;0.82;;;9.30;99.90;;;;;;4996547;28;20034;-81
2021/12/15 14:02:22;;;;;;;5.18;1.30;;;9.20;99.90;;;;;;4988186;28;20421;-84
2021/12/15 14:04:57;;;;;;;4.65;1.48;;;;;;;;;;4998846;28;20042;-83
2021/12/15 14:07:32;;;;;;;4.80;2.28;;;11.00;99.90;;;;;;4997835;28;20057;-82
2021/12/15 14:10:10;;;;;;;6.53;2.33;;;;;;;;;;4980092;28;20039;-81
2021/12/15 14:12:45;;;;;;;6.68;2.97;;;;;;;;;;4997467;28;20034;-86
2021/12/15 14:15:12;;;;;;;8.23;3.20;;;;;;;;;;4981108;28;20565;-84
2021/12/15 14:17:38;;;;;;;3.88;1.73;;;;;;;;;;4994914;28;20038;-84
2021/12/15 14:20:11;;;;;;;5.80;1.13;;;;;;;;;;4992872;28;20165;-84
2021/12/15 14:22:38;;;;;;;4.13;1.55;;;;;;;;;;5012709;28;20118;-83
2021/12/15 14:25:04;;;;;;;5.85;1.98;;;;;;;;;;4984010;28;20043;-85
2021/12/15 14:27:30;;;;;;;7.47;2.10;;;;;;;;;;4992471;28;20066;-85
2021/12/15 14:29:56;;;;;;;5.22;1.35;;;;;;;;;;4997854;28;20113;-85
2021/12/15 14:32:25;;;;;;;6.93;1.30;;;9.20;99.90;;;;;;4972471;28;20045;-84
2021/12/15 14:34:53;;;;;;;3.53;0.82;;;;;;;;;;5004939;28;20030;-83
2021/12/15 14:37:21;;;;;;;5.93;2.08;;;;;;;;;;4978062;28;20307;-84
2021/12/15 14:39:50;;;;;;;7.35;2.13;;;;;;;;;;5008383;28;20268;-84
2021/12/15 14:42:18;;;;;;;1.95;0.70;;;;;;;;;;4992312;28;20254;-84
2021/12/15 14:44:49;;;;;;;2.28;0.80;;;;;;;;;;4995058;28;20079;-84
2021/12/15 14:47:16;;;;;;;5.07;1.65;;;;;;;;;;4986750;28;20055;-84
2021/12/15 14:49:45;;;;;;;6.55;1.35;;;;;;;;;;4995662;28;21245;-85
2021/12/15 14:52:13;;;;;;;1.92;0.82;;;;;;;;;;4976654;28;20260;-82
2021/12/15 14:54:40;;;;;;;7.88;1.52;;;;;;;;;;5004790;28;20117;-83
2021/12/15 14:57:11;;;;;;;4.47;1.42;;;;;;;;;;4993043;28;20058;-81
2021/12/15 14:59:45;;;;;;;3.95;1.23;;;;;;;;;;4994920;28;20030;-84
2021/12/15 15:02:22;;;;;;;4.00;1.23;;;9.60;99.90;;;;;;4979150;28;20105;-83
2021/12/15 15:04:50;;;;;;;4.55;1.67;;;;;;;;;;4997003;28;20081;-84
2021/12/15 15:07:22;;;;;;;3.03;1.00;;;;;;;;;;4996684;28;20074;-85
2021/12/15 15:09:52;;;;;;;3.00;1.00;;;;;;;;;;4995025;28;20141;-80
2021/12/15 15:12:18;;;;;;;2.60;1.27;;;;;;;;;;4980581;28;20089;-82
2021/12/15 15:14:48;;;;;;;4.15;1.17;;;;;;;;;;4987707;28;20048;-82
2021/12/15 15:17:24;;;;;;;4.35;1.30;;;;;;;;;;4989832;28;20101;-82
2021/12/15 15:19:52;;;;;;;3.17;1.10;;;;;;;;;;4993504;28;20179;-81
2021/12/15 15:22:21;;;;;;;4.50;1.35;;;;;;;;;;4996839;28;20077;-82
2021/12/15 15:24:48;;;;;;;3.95;1.38;;;;;;;;;;4997213;28;20038;-82
2021/12/15 15:27:16;;;;;;;6.85;1.92;;;9.40;99.90;;;;;;4985359;28;20076;-82
2021/12/15 15:29:44;;;;;;;3.90;1.20;;;;;;;;;;4994215;28;20192;-82
2021/12/15 15:32:20;;;;;;;4.30;1.10;;;;;;;;;;4979816;28;20034;-83
2021/12/15 15:34:47;;;;;;;8.15;2.50;;;;;;;;;;4968528;28;20027;-81
2021/12/15 15:37:21;;;;;;;4.00;1.77;;;;;;;;;;4996498;28;20150;-83
2021/12/15 15:39:59;;;;;;;5.00;1.15;;;;;;;;;;4974704;28;20083;-82
2021/12/15 15:42:26;;;;;;;7.93;2.30;;;;;;;;;;4978318;28;20048;-84
2021/12/15 15:44:52;;;;;;;3.45;1.20;;;;;;;;;;4993031;28;20081;-83
2021/12/15 15:47:20;;;;;;;7.18;2.47;;;;;;;;;;4989752;28;20034;-84
2021/12/15 15:50:06;;;;;;;9.45;2.65;;;;;;;;;;4992384;28;20023;-80
2021/12/15 15:52:43;;;;;;;6.05;1.52;;;;;;;;;;5012150;28;20026;-83